Date,TemperatureHighF,TemperatureAvgF,TemperatureLowF,DewpointHighF,DewpointAvgF,DewpointLowF,HumidityHigh,HumidityAvg,HumidityLow,PressureMaxIn,PressureMinIn,WindSpeedMaxMPH,WindSpeedAvgMPH,GustSpeedMaxMPH,PrecipitationSumIn
2013-8-1,66,61,58,58,55,48,97,82,59,29.92,29.81,16,8,0,0.00
2013-8-2,66,60,56,58,55,49,100,87,58,29.84,29.76,19,7,0,0.00
2013-8-3,67,60,56,58,56,50,100,89,61,29.84,29.77,18,6,0,0.00
2013-8-4,65,60,57,59,56,51,100,90,64,29.88,29.81,18,5,0,0.00
2013-8-5,64,60,57,60,56,50,100,90,66,29.89,29.80,13,5,0,0.00
2013-8-6,67,61,58,61,56,49,99,84,58,29.90,29.82,16,5,0,0.00
2013-8-7,69,63,60,63,58,49,100,83,53,29.96,29.88,12,4,0,0.00
2013-8-8,71,63,59,64,58,48,100,86,52,29.89,29.79,16,4,0,0.08
2013-8-9,69,62,59,61,58,51,100,86,57,29.85,29.78,14,5,0,0.00
2013-8-10,70,63,61,62,58,50,99,84,55,29.91,29.84,16,5,0,0.00
2013-8-11,66,61,60,62,59,52,100,93,64,29.89,29.80,16,6,0,0.00
2013-8-12,69,62,59,62,59,51,100,90,58,29.86,29.80,15,6,0,0.00
2013-8-13,73,63,59,64,54,-72,95,75,42,29.84,29.76,17,6,0,0.00
2013-8-14,69,63,58,64,58,50,100,86,58,29.84,29.76,15,7,0,0.00
2013-8-15,72,66,62,65,63,58,100,91,66,29.82,29.76,16,6,0,0.00
2013-8-16,69,64,61,65,62,56,100,93,71,29.85,29.79,15,7,0,0.00
2013-8-17,72,64,60,62,59,53,99,85,58,29.85,29.73,16,6,0,0.00
2013-8-18,72,63,60,64,58,51,100,85,53,29.76,29.65,18,6,0,0.00
2013-8-19,68,51,32,61,48,32,100,55,62,29.77,0.00,20,4,0,0.00
2013-8-20,32,32,32,32,32,32,0,0,100,0.00,0.00,0,0,0,0.00
2013-8-21,32,32,32,32,32,32,0,0,100,0.00,0.00,0,0,0,0.00
2013-8-22,32,32,32,32,32,32,0,0,100,0.00,0.00,0,0,0,0.00
2013-8-23,63,51,32,58,47,-76,96,58,65,29.79,0.00,16,5,0,3.39
2013-8-24,67,62,59,62,58,52,100,86,60,29.77,29.71,16,7,0,0.00
2013-8-25,73,66,62,67,61,-74,100,85,58,29.80,29.75,10,4,0,0.00
2013-8-26,69,63,60,62,57,49,99,83,55,29.87,29.76,15,5,0,0.00
2013-8-27,68,62,58,62,59,51,100,90,62,29.77,29.71,15,6,0,0.00
2013-8-28,73,65,60,67,62,57,100,92,64,29.80,29.72,18,6,0,0.00
2013-8-29,73,66,63,65,62,56,100,89,61,29.91,29.78,17,5,0,0.00
2013-8-30,76,66,60,65,59,52,100,80,47,29.89,29.77,17,5,0,0.00
2013-8-31,69,62,58,62,59,56,100,92,69,29.83,29.75,17,7,0,0.00